Time;durP1;ratioP1;P1;durP2;ratioP2;P2;SDS_P1;SDS_P2;PMS_P1;PMS_P2;Temp;Humidity;BMP_temperature;BMP_pressure;BME280_temperature;BME280_humidity;BME280_pressure;Samples;Min_cycle;Max_cycle;Signal;HPM_P1;HPM_P2
2023/12/30 06:00:39;;;;;;;3.47;1.50;;;;;;;;;;1743442;28;20187;-80
2023/12/30 06:01:30;;;;;;;1.42;1.00;;;;;;;;;;1736797;28;20595;-80
2023/12/30 06:02:23;;;;;;;2.78;1.10;;;;;;;;;;1736354;28;20687;-80
2023/12/30 06:03:14;;;;;;;1.20;1.10;;;;;;;;;;1742696;28;20211;-80
2023/12/30 06:04:05;;;;;;;1.60;1.08;;;;;;;;;;1743274;28;20195;-80
2023/12/30 06:04:58;;;;;;;2.40;1.40;;;;;;;;;;1738826;28;20224;-79
2023/12/30 06:05:49;;;;;;;1.92;1.20;;;;;;;;;;1736483;28;20203;-80
2023/12/30 06:06:40;;;;;;;2.00;1.63;;;;;;;;;;1739322;28;20217;-80
2023/12/30 06:07:32;;;;;;;2.55;1.25;;;;;;;;;;1743310;28;20683;-80
2023/12/30 06:08:23;;;;;;;1.73;1.40;;;;;;;;;;1740874;28;20209;-80
2023/12/30 06:09:15;;;;;;;1.75;1.17;;;;;;;;;;1736030;28;20729;-80
2023/12/30 06:10:07;;;;;;;1.88;1.27;;;;;;;;;;1736092;28;20232;-80
2023/12/30 06:10:58;;;;;;;1.63;1.40;;;;;;;;;;1740788;28;20219;-80
2023/12/30 06:11:50;;;;;;;1.65;1.20;;;;;;;;;;1742327;28;20219;-80
2023/12/30 06:12:41;;;;;;;1.20;1.00;;;;;;;;;;1743218;28;20690;-80
2023/12/30 06:13:34;;;;;;;1.30;1.05;;;;;;;;;;1742775;28;20229;-80
2023/12/30 06:14:25;;;;;;;1.23;1.10;;;;;;;;;;1738688;28;20583;-80
2023/12/30 06:15:17;;;;;;;1.25;1.05;;;;;;;;;;1736020;28;20235;-79
2023/12/30 06:16:10;;;;;;;1.98;1.08;;;;;;;;;;1738857;28;20210;-78
2023/12/30 06:17:02;;;;;;;1.83;1.10;;;;;;;;;;1742948;28;20297;-78
2023/12/30 06:17:54;;;;;;;2.38;1.30;;;;;;;;;;1741537;28;20663;-78
2023/12/30 06:18:46;;;;;;;1.80;0.95;;;;;;;;;;1734812;28;20207;-78
2023/12/30 06:19:37;;;;;;;1.48;1.00;;;;;;;;;;1735691;28;20231;-78
2023/12/30 06:20:28;;;;;;;3.15;1.20;;;;;;;;;;1736040;28;20373;-79
2023/12/30 06:21:20;;;;;;;1.63;1.02;;;;;;;;;;1735675;28;20588;-78
2023/12/30 06:22:11;;;;;;;2.55;1.15;;;;;;;;;;1741335;28;20207;-78
2023/12/30 06:23:03;;;;;;;2.15;1.00;;;;;;;;;;1742516;28;20542;-78
2023/12/30 06:23:55;;;;;;;3.83;1.75;;;;;;;;;;1738710;28;20211;-78
2023/12/30 06:24:47;;;;;;;2.00;1.15;;;;;;;;;;1739347;28;20655;-78
2023/12/30 06:25:38;;;;;;;2.35;1.30;;;;;;;;;;1741657;28;20202;-79
2023/12/30 06:26:30;;;;;;;1.63;0.90;;;;;;;;;;1742158;28;20257;-78
2023/12/30 06:27:21;;;;;;;2.25;0.93;;;;;;;;;;1741478;28;20206;-78
2023/12/30 06:28:13;;;;;;;2.08;1.30;;;;;;;;;;1735171;28;20202;-78
2023/12/30 06:29:05;;;;;;;4.15;1.10;;;;;;;;;;1735431;28;20582;-78
2023/12/30 06:29:56;;;;;;;1.35;1.00;;;;;;;;;;1742700;28;20214;-78
2023/12/30 06:30:48;;;;;;;2.08;1.40;;;;;;;;;;1742675;28;20199;-79
2023/12/30 06:31:43;;;;;;;3.35;1.10;;;;;;;;;;1737452;28;20859;-78
2023/12/30 06:32:35;;;;;;;3.15;1.30;;;;;;;;;;1735945;28;20250;-79
2023/12/30 06:33:26;;;;;;;2.08;1.23;;;;;;;;;;1739774;28;20659;-78
2023/12/30 06:34:17;;;;;;;3.05;1.55;;;;;;;;;;1742573;28;20199;-79
2023/12/30 06:35:10;;;;;;;1.10;0.95;;;;;;;;;;1741363;28;20257;-79
2023/12/30 06:36:01;;;;;;;1.67;1.10;;;;;;;;;;1736890;28;20204;-78
2023/12/30 06:36:52;;;;;;;1.38;1.27;;;;;;;;;;1737895;28;20286;-78
2023/12/30 06:37:44;;;;;;;2.47;1.10;;;;;;;;;;1744906;28;20210;-78
2023/12/30 06:38:35;;;;;;;3.35;1.55;;;;;;;;;;1743335;28;20215;-78
2023/12/30 06:39:27;;;;;;;1.48;1.38;;;;;;;;;;1737563;28;20286;-78
2023/12/30 06:40:18;;;;;;;1.33;1.23;;;;;;;;;;1737142;28;20208;-78
2023/12/30 06:41:09;;;;;;;2.20;1.38;;;;;;;;;;1740477;28;20215;-78
2023/12/30 06:42:02;;;;;;;1.60;1.42;;;;;;;;;;1744105;28;20281;-79
2023/12/30 06:42:53;;;;;;;2.58;1.50;;;;;;;;;;1743972;28;20203;-79
2023/12/30 06:43:44;;;;;;;1.23;1.08;;;;;;;;;;1743916;28;20199;-79
2023/12/30 06:44:36;;;;;;;2.10;1.60;;;;;;;;;;1743049;28;20199;-78
2023/12/30 06:45:27;;;;;;;2.63;1.35;;;;;;;;;;1738337;28;20290;-79
2023/12/30 06:46:20;;;;;;;2.17;1.30;;;;;;;;;;1737919;28;20289;-79
2023/12/30 06:47:12;;;;;;;3.35;1.60;;;;;;;;;;1745023;28;20533;-79
2023/12/30 06:48:05;;;;;;;3.40;1.58;;;;;;;;;;1745040;28;20203;-79
2023/12/30 06:48:56;;;;;;;3.65;1.77;;;;;;;;;;1741259;28;20270;-78
2023/12/30 06:49:49;;;;;;;3.55;1.67;;;;;;;;;;1743458;28;20670;-78
2023/12/30 06:50:40;;;;;;;2.78;1.90;;;;;;;;;;1743931;28;20214;-78
2023/12/30 06:51:31;;;;;;;2.20;2.00;;;;;;;;;;1744686;28;20225;-79
2023/12/30 06:52:24;;;;;;;1.95;1.75;;;;;;;;;;1741511;28;20250;-79
2023/12/30 06:53:15;;;;;;;4.03;2.03;;;;;;;;;;1737819;28;20204;-79
2023/12/30 06:54:06;;;;;;;3.00;1.65;;;;;;;;;;1739369;28;20200;-79
2023/12/30 06:54:58;;;;;;;2.30;1.48;;;;;;;;;;1745036;28;20683;-79
2023/12/30 06:55:49;;;;;;;1.80;1.40;;;;;;;;;;1744706;28;20199;-79
2023/12/30 06:56:43;;;;;;;2.15;1.52;;;;;;;;;;1738526;28;20539;-79
2023/12/30 06:57:34;;;;;;;1.52;1.25;;;;;;;;;;1738284;28;20272;-79
2023/12/30 06:58:25;;;;;;;1.50;1.35;;;;;;;;;;1737633;28;20196;-79
2023/12/30 06:59:17;;;;;;;4.25;1.60;;;;;;;;;;1738465;28;20195;-79
2023/12/30 07:00:08;;;;;;;3.30;1.88;;;;;;;;;;1742328;28;20214;-79
2023/12/30 07:00:59;;;;;;;3.47;1.20;;;;;;;;;;1744634;28;20199;-79
2023/12/30 07:01:51;;;;;;;2.55;1.33;;;;;;;;;;1742545;28;20689;-79
2023/12/30 07:02:44;;;;;;;2.42;1.17;;;;;;;;;;1739521;28;20206;-78
2023/12/30 07:03:35;;;;;;;3.17;1.40;;;;;;;;;;1744370;28;20225;-79
2023/12/30 07:04:28;;;;;;;2.17;1.67;;;;;;;;;;1745578;28;20199;-79
2023/12/30 07:05:19;;;;;;;2.70;1.58;;;;;;;;;;1745552;28;20207;-79
2023/12/30 07:06:10;;;;;;;1.70;1.60;;;;;;;;;;1738915;28;20206;-79
2023/12/30 07:07:02;;;;;;;1.90;1.20;;;;;;;;;;1738802;28;20207;-79
2023/12/30 07:07:53;;;;;;;2.75;1.65;;;;;;;;;;1744221;28;20221;-79
2023/12/30 07:08:44;;;;;;;2.15;1.23;;;;;;;;;;1744542;28;20199;-79
2023/12/30 07:09:36;;;;;;;1.40;1.30;;;;;;;;;;1741903;28;20610;-79
2023/12/30 07:10:27;;;;;;;1.55;1.10;;;;;;;;;;1737593;28;20204;-81
2023/12/30 07:11:18;;;;;;;4.05;1.50;;;;;;;;;;1738036;28;20646;-80
2023/12/30 07:12:12;;;;;;;1.70;1.35;;;;;;;;;;1742897;28;20772;-80
2023/12/30 07:13:03;;;;;;;2.05;1.45;;;;;;;;;;1742313;28;20203;-81
2023/12/30 07:13:55;;;;;;;1.75;1.40;;;;;;;;;;1735969;28;20739;-80
2023/12/30 07:14:47;;;;;;;3.53;1.30;;;;;;;;;;1735881;28;20208;-81
2023/12/30 07:15:38;;;;;;;3.20;1.30;;;;;;;;;;1742235;28;20242;-81
2023/12/30 07:16:30;;;;;;;3.88;1.48;;;;;;;;;;1742861;28;20199;-80
2023/12/30 07:17:21;;;;;;;1.50;1.10;;;;;;;;;;1738474;28;20204;-80
2023/12/30 07:18:13;;;;;;;2.50;1.55;;;;;;;;;;1735916;28;20219;-80
2023/12/30 07:19:06;;;;;;;2.65;1.60;;;;;;;;;;1738576;28;20211;-80
2023/12/30 07:19:58;;;;;;;3.47;1.73;;;;;;;;;;1742899;28;20635;-82
2023/12/30 07:20:49;;;;;;;1.90;1.50;;;;;;;;;;1742645;28;20203;-81
2023/12/30 07:21:41;;;;;;;2.42;1.85;;;;;;;;;;1742739;28;20632;-81
2023/12/30 07:22:32;;;;;;;2.13;1.60;;;;;;;;;;1742351;28;20210;-80
2023/12/30 07:23:24;;;;;;;2.35;1.25;;;;;;;;;;1735825;28;20269;-81
2023/12/30 07:24:16;;;;;;;2.28;1.73;;;;;;;;;;1735646;28;20200;-80
2023/12/30 07:25:07;;;;;;;2.58;1.90;;;;;;;;;;1741834;28;20217;-81
2023/12/30 07:25:58;;;;;;;2.05;1.80;;;;;;;;;;1742879;28;20203;-89
2023/12/30 07:26:50;;;;;;;2.33;2.05;;;;;;;;;;1739020;28;20234;-85
2023/12/30 07:27:42;;;;;;;2.03;1.75;;;;;;;;;;1735689;28;20212;-82
2023/12/30 07:28:33;;;;;;;1.92;1.60;;;;;;;;;;1733891;28;20207;-82
2023/12/30 07:29:25;;;;;;;1.63;1.50;;;;;;;;;;1735134;28;20226;-82
2023/12/30 07:30:16;;;;;;;1.90;1.80;;;;;;;;;;1735897;28;20216;-81
2023/12/30 07:31:07;;;;;;;2.20;1.80;;;;;;;;;;1742001;28;20254;-82
2023/12/30 07:31:59;;;;;;;4.35;1.88;;;;;;;;;;1742608;28;20705;-82
2023/12/30 07:32:50;;;;;;;3.38;1.83;;;;;;;;;;1742429;28;20694;-81
2023/12/30 07:33:44;;;;;;;2.67;1.83;;;;;;;;;;1742456;28;20678;-81
2023/12/30 07:34:35;;;;;;;3.05;1.50;;;;;;;;;;1742624;28;20211;-82
2023/12/30 07:35:27;;;;;;;2.05;1.70;;;;;;;;;;1742509;28;20215;-82
2023/12/30 07:36:19;;;;;;;2.25;1.50;;;;;;;;;;1738480;28;20357;-81
2023/12/30 07:37:11;;;;;;;2.58;1.80;;;;;;;;;;1742422;28;20249;-82
2023/12/30 07:38:03;;;;;;;2.60;2.40;;;;;;;;;;1742675;28;20211;-82
2023/12/30 07:38:55;;;;;;;2.22;1.70;;;;;;;;;;1742299;28;20203;-82
2023/12/30 07:39:46;;;;;;;3.00;2.10;;;;;;;;;;1741460;28;20218;-82
2023/12/30 07:40:39;;;;;;;2.95;2.20;;;;;;;;;;1735805;28;20196;-82
2023/12/30 07:41:30;;;;;;;2.83;2.00;;;;;;;;;;1740914;28;20218;-81
2023/12/30 07:42:21;;;;;;;4.32;2.17;;;;;;;;;;1742809;28;20238;-81
2023/12/30 07:43:13;;;;;;;5.45;2.20;;;;;;;;;;1742961;28;20199;-82
2023/12/30 07:44:04;;;;;;;2.60;2.30;;;;;;;;;;1737571;28;20696;-81
2023/12/30 07:44:55;;;;;;;5.60;2.58;;;;;;;;;;1735706;28;20200;-82
2023/12/30 07:45:47;;;;;;;2.97;2.35;;;;;;;;;;1739095;28;20203;-82
2023/12/30 07:46:38;;;;;;;3.28;2.45;;;;;;;;;;1742264;28;20207;-81
2023/12/30 07:47:29;;;;;;;3.50;2.17;;;;;;;;;;1740484;28;20210;-81
2023/12/30 07:48:22;;;;;;;2.72;2.40;;;;;;;;;;1735293;28;20291;-81
2023/12/30 07:49:17;;;;;;;3.05;2.17;;;;;;;;;;1741097;28;20199;-82
2023/12/30 07:50:08;;;;;;;1.83;1.73;;;;;;;;;;1742579;28;20253;-82
2023/12/30 07:51:00;;;;;;;2.70;1.90;;;;;;;;;;1742501;28;20199;-81
2023/12/30 07:51:53;;;;;;;3.40;1.77;;;;;;;;;;1736242;28;20203;-80
2023/12/30 07:52:44;;;;;;;3.63;1.98;;;;;;;;;;1735980;28;20254;-80
2023/12/30 07:53:36;;;;;;;2.50;1.73;;;;;;;;;;1740683;28;20217;-80
2023/12/30 07:54:27;;;;;;;1.90;1.80;;;;;;;;;;1742796;28;20214;-80
2023/12/30 07:55:18;;;;;;;2.83;1.98;;;;;;;;;;1739001;28;20259;-79
2023/12/30 07:56:11;;;;;;;1.85;1.70;;;;;;;;;;1735663;28;20204;-79
2023/12/30 07:57:05;;;;;;;2.65;1.55;;;;;;;;;;1738040;28;20253;-79
2023/12/30 07:57:58;;;;;;;3.47;1.80;;;;;;;;;;1744421;28;20187;-79
2023/12/30 07:58:50;;;;;;;1.98;1.88;;;;;;;;;;1741516;28;20271;-79
2023/12/30 07:59:41;;;;;;;3.15;2.00;;;;;;;;;;1741020;28;20195;-79
2023/12/30 08:00:33;;;;;;;1.75;1.65;;;;;;;;;;1743228;28;20267;-81
2023/12/30 08:01:24;;;;;;;2.80;2.05;;;;;;;;;;1743916;28;20304;-79
2023/12/30 08:02:15;;;;;;;2.38;2.17;;;;;;;;;;1744244;28;20191;-80
2023/12/30 08:03:07;;;;;;;2.83;1.85;;;;;;;;;;1744269;28;20663;-80
2023/12/30 08:03:58;;;;;;;3.30;1.80;;;;;;;;;;1745097;28;20206;-80
2023/12/30 08:04:51;;;;;;;1.80;1.60;;;;;;;;;;1740897;28;20629;-80
2023/12/30 08:05:43;;;;;;;2.75;1.75;;;;;;;;;;1738209;28;20253;-81
2023/12/30 08:06:34;;;;;;;4.35;1.73;;;;;;;;;;1739744;28;20227;-80
2023/12/30 08:07:25;;;;;;;1.50;1.40;;;;;;;;;;1744576;28;20293;-80
2023/12/30 08:08:19;;;;;;;3.83;1.58;;;;;;;;;;1743557;28;20195;-78
2023/12/30 08:09:11;;;;;;;2.97;1.70;;;;;;;;;;1737903;28;20285;-81
2023/12/30 08:10:02;;;;;;;2.33;1.60;;;;;;;;;;1737426;28;20222;-81
2023/12/30 08:10:54;;;;;;;1.88;1.60;;;;;;;;;;1745127;28;20207;-79
2023/12/30 08:11:45;;;;;;;2.25;1.85;;;;;;;;;;1747627;28;20203;-81
2023/12/30 08:12:36;;;;;;;2.00;1.80;;;;;;;;;;1741976;28;20212;-81
2023/12/30 08:13:28;;;;;;;3.30;1.88;;;;;;;;;;1739873;28;20199;-80
2023/12/30 08:14:19;;;;;;;2.95;1.45;;;;;;;;;;1741920;28;20690;-81
2023/12/30 08:15:11;;;;;;;3.15;1.90;;;;;;;;;;1745913;28;20191;-80
2023/12/30 08:16:03;;;;;;;1.85;1.50;;;;;;;;;;1742934;28;20207;-79
2023/12/30 08:16:54;;;;;;;2.03;1.83;;;;;;;;;;1743635;28;20270;-80
2023/12/30 08:17:46;;;;;;;2.28;2.08;;;;;;;;;;1744655;28;20203;-80
2023/12/30 08:18:37;;;;;;;2.03;1.40;;;;;;;;;;1738967;28;20208;-80
2023/12/30 08:19:28;;;;;;;1.90;1.65;;;;;;;;;;1738580;28;20278;-80
2023/12/30 08:20:21;;;;;;;2.30;1.75;;;;;;;;;;1744747;28;20639;-80
2023/12/30 08:21:13;;;;;;;1.70;1.60;;;;;;;;;;1745938;28;20227;-80
2023/12/30 08:22:04;;;;;;;2.35;1.80;;;;;;;;;;1741289;28;20207;-80
2023/12/30 08:22:56;;;;;;;4.10;2.10;;;;;;;;;;1739172;28;20290;-80
2023/12/30 08:23:47;;;;;;;1.88;1.70;;;;;;;;;;1741264;28;20312;-80
2023/12/30 08:24:39;;;;;;;1.85;1.75;;;;;;;;;;1742598;28;20605;-79
2023/12/30 08:25:31;;;;;;;3.10;2.17;;;;;;;;;;1742826;28;20193;-80
2023/12/30 08:26:22;;;;;;;3.05;1.60;;;;;;;;;;1742129;28;20285;-80
2023/12/30 08:27:13;;;;;;;2.75;1.50;;;;;;;;;;1741924;28;20219;-80
2023/12/30 08:28:06;;;;;;;1.50;1.38;;;;;;;;;;1741591;28;20669;-79
2023/12/30 08:28:57;;;;;;;3.92;1.60;;;;;;;;;;1741838;28;20210;-79
2023/12/30 08:29:50;;;;;;;1.60;1.50;;;;;;;;;;1741844;28;20199;-79
2023/12/30 08:30:41;;;;;;;2.50;1.52;;;;;;;;;;1741807;28;20210;-81
2023/12/30 08:31:34;;;;;;;3.08;1.75;;;;;;;;;;1737942;28;20285;-80
2023/12/30 08:32:27;;;;;;;3.05;1.60;;;;;;;;;;1734919;28;20188;-80
2023/12/30 08:33:18;;;;;;;2.90;1.60;;;;;;;;;;1737853;28;20203;-80
2023/12/30 08:34:09;;;;;;;2.78;1.70;;;;;;;;;;1742423;28;20203;-80
2023/12/30 08:35:03;;;;;;;1.88;1.60;;;;;;;;;;1741818;28;20196;-79
2023/12/30 08:35:56;;;;;;;1.63;1.52;;;;;;;;;;1741881;28;20207;-85
2023/12/30 08:36:47;;;;;;;3.13;1.70;;;;;;;;;;1741779;28;20203;-77
2023/12/30 08:37:39;;;;;;;3.45;1.50;;;;;;;;;;1734799;28;20196;-75
2023/12/30 08:38:31;;;;;;;2.40;1.73;;;;;;;;;;1734466;28;20212;-76
2023/12/30 08:39:22;;;;;;;3.15;1.70;;;;;;;;;;1740266;28;20214;-76
2023/12/30 08:40:15;;;;;;;3.00;1.63;;;;;;;;;;1741641;28;20203;-77
2023/12/30 08:41:09;;;;;;;3.45;1.75;;;;;;;;;;1737349;28;20227;-76
2023/12/30 08:42:01;;;;;;;1.83;1.40;;;;;;;;;;1734651;28;20196;-77
2023/12/30 08:42:53;;;;;;;2.30;1.80;;;;;;;;;;1737625;28;20207;-76
2023/12/30 08:43:44;;;;;;;2.85;1.40;;;;;;;;;;1741527;28;20214;-77
2023/12/30 08:44:40;;;;;;;2.30;1.55;;;;;;;;;;1740157;28;20286;-77
2023/12/30 08:45:32;;;;;;;1.40;1.30;;;;;;;;;;1734840;28;20287;-77
2023/12/30 08:46:23;;;;;;;1.95;1.40;;;;;;;;;;1735314;28;20582;-77
2023/12/30 08:47:16;;;;;;;1.67;1.42;;;;;;;;;;1741500;28;20226;-77
2023/12/30 08:48:07;;;;;;;3.00;1.50;;;;;;;;;;1741577;28;20205;-76
2023/12/30 08:48:59;;;;;;;2.10;1.90;;;;;;;;;;1734937;28;20568;-76
2023/12/30 08:49:51;;;;;;;1.75;1.45;;;;;;;;;;1734892;28;20200;-78
2023/12/30 08:50:44;;;;;;;1.67;1.38;;;;;;;;;;1739469;28;20264;-78
2023/12/30 08:51:37;;;;;;;2.70;1.40;;;;;;;;;;1741546;28;20199;-78
2023/12/30 08:52:29;;;;;;;3.83;1.58;;;;;;;;;;1741476;28;20695;-77
2023/12/30 08:53:24;;;;;;;3.90;1.42;;;;;;;;;;1741523;28;20203;-78
2023/12/30 08:54:16;;;;;;;2.75;1.33;;;;;;;;;;1738864;28;20618;-77
2023/12/30 08:55:10;;;;;;;1.90;1.40;;;;;;;;;;1734570;28;20210;-78
2023/12/30 08:56:02;;;;;;;2.67;1.95;;;;;;;;;;1736135;28;20204;-78
2023/12/30 08:56:54;;;;;;;2.47;1.67;;;;;;;;;;1741552;28;20199;-77
2023/12/30 08:57:45;;;;;;;2.55;1.58;;;;;;;;;;1740582;28;20207;-77
2023/12/30 08:58:38;;;;;;;2.92;1.73;;;;;;;;;;1733907;28;20207;-77
2023/12/30 08:59:29;;;;;;;2.67;1.45;;;;;;;;;;1734658;28;20208;-76
2023/12/30 09:00:20;;;;;;;1.75;1.60;;;;;;;;;;1740144;28;20730;-77
2023/12/30 09:01:12;;;;;;;1.60;1.40;;;;;;;;;;1741428;28;20301;-77
2023/12/30 09:02:03;;;;;;;1.73;1.30;;;;;;;;;;1737045;28;20207;-76
2023/12/30 09:02:56;;;;;;;1.55;1.45;;;;;;;;;;1746432;28;20247;-76
2023/12/30 09:03:47;;;;;;;4.55;1.48;;;;;;;;;;1743941;28;20569;-77
2023/12/30 09:04:38;;;;;;;1.65;1.52;;;;;;;;;;1744503;28;20647;-78
2023/12/30 09:05:31;;;;;;;2.17;1.80;;;;;;;;;;1747338;28;20199;-77
2023/12/30 09:06:22;;;;;;;1.70;1.58;;;;;;;;;;1741473;28;20234;-76
2023/12/30 09:07:16;;;;;;;2.42;1.60;;;;;;;;;;1741415;28;20222;-77
2023/12/30 09:08:07;;;;;;;2.22;1.60;;;;;;;;;;1739905;28;20210;-80
2023/12/30 09:08:58;;;;;;;1.92;1.75;;;;;;;;;;1742625;28;20239;-80
2023/12/30 09:09:50;;;;;;;2.78;1.88;;;;;;;;;;1742357;28;20199;-79
2023/12/30 09:10:42;;;;;;;3.25;1.70;;;;;;;;;;1741909;28;20202;-80
2023/12/30 09:11:37;;;;;;;1.90;1.65;;;;;;;;;;1741792;28;20223;-79
2023/12/30 09:12:28;;;;;;;1.50;1.40;;;;;;;;;;1742658;28;20203;-80
2023/12/30 09:13:20;;;;;;;1.75;1.20;;;;;;;;;;1741859;28;20202;-80
2023/12/30 09:14:13;;;;;;;2.45;1.55;;;;;;;;;;1741701;28;20195;-80
2023/12/30 09:15:05;;;;;;;1.50;1.33;;;;;;;;;;1741667;28;20257;-79
2023/12/30 09:15:57;;;;;;;2.47;1.52;;;;;;;;;;1741848;28;20201;-80
2023/12/30 09:16:48;;;;;;;1.83;1.30;;;;;;;;;;1741622;28;20214;-80
2023/12/30 09:17:48;;;;;;;1.48;1.20;;;;;;;;;;1754887;28;20595;-81
2023/12/30 09:18:39;;;;;;;1.50;1.20;;;;;;;;;;1754273;28;20198;-81
2023/12/30 09:19:30;;;;;;;1.80;1.70;;;;;;;;;;1754840;28;20613;-80
2023/12/30 09:20:22;;;;;;;1.95;1.60;;;;;;;;;;1754881;28;20205;-80
2023/12/30 09:21:13;;;;;;;2.85;1.50;;;;;;;;;;1749609;28;20885;-80
2023/12/30 09:22:07;;;;;;;1.92;1.35;;;;;;;;;;1747846;28;20202;-81
2023/12/30 09:22:59;;;;;;;2.25;1.70;;;;;;;;;;1751613;28;20209;-81
2023/12/30 09:23:50;;;;;;;3.25;1.27;;;;;;;;;;1754852;28;20204;-80
2023/12/30 09:24:41;;;;;;;1.65;1.08;;;;;;;;;;1752011;28;20205;-81
2023/12/30 09:25:33;;;;;;;1.88;1.20;;;;;;;;;;1747674;28;20696;-81
2023/12/30 09:26:25;;;;;;;1.90;1.35;;;;;;;;;;1748331;28;20202;-81
2023/12/30 09:27:16;;;;;;;1.65;1.40;;;;;;;;;;1752799;28;20219;-80
2023/12/30 09:28:08;;;;;;;1.58;1.33;;;;;;;;;;1754598;28;20230;-81
2023/12/30 09:28:59;;;;;;;2.35;1.55;;;;;;;;;;1748375;28;20686;-81
2023/12/30 09:29:50;;;;;;;1.52;1.10;;;;;;;;;;1753332;28;20186;-81
2023/12/30 09:30:42;;;;;;;2.67;1.70;;;;;;;;;;1749882;28;20210;-81
2023/12/30 09:31:33;;;;;;;1.45;1.23;;;;;;;;;;1751465;28;20205;-81
2023/12/30 09:32:24;;;;;;;2.00;1.33;;;;;;;;;;1750485;28;20203;-82
2023/12/30 09:33:18;;;;;;;2.28;1.40;;;;;;;;;;1748565;28;20198;-83
2023/12/30 09:34:09;;;;;;;2.28;1.20;;;;;;;;;;1747811;28;20206;-82
2023/12/30 09:35:02;;;;;;;1.63;1.23;;;;;;;;;;1748602;28;20225;-82
2023/12/30 09:35:54;;;;;;;2.50;1.48;;;;;;;;;;1750389;28;20249;-81
2023/12/30 09:36:46;;;;;;;2.78;1.20;;;;;;;;;;1757801;28;20235;-81
2023/12/30 09:37:37;;;;;;;2.85;1.40;;;;;;;;;;1754985;28;20232;-81
2023/12/30 09:38:29;;;;;;;1.23;1.05;;;;;;;;;;1748899;28;20236;-81
2023/12/30 09:39:20;;;;;;;2.13;1.20;;;;;;;;;;1747896;28;20199;-82
2023/12/30 09:40:12;;;;;;;1.95;1.50;;;;;;;;;;1749052;28;20191;-83
2023/12/30 09:41:03;;;;;;;1.77;1.00;;;;;;;;;;1747966;28;20231;-82
2023/12/30 09:41:55;;;;;;;1.52;1.10;;;;;;;;;;1747786;28;20206;-81
2023/12/30 09:42:49;;;;;;;2.53;1.45;;;;;;;;;;1747866;28;20693;-81
2023/12/30 09:43:42;;;;;;;1.80;1.30;;;;;;;;;;1749215;28;20198;-82
2023/12/30 09:44:34;;;;;;;1.83;1.30;;;;;;;;;;1754549;28;20206;-81
2023/12/30 09:45:25;;;;;;;1.30;1.15;;;;;;;;;;1753953;28;20198;-80
2023/12/30 09:46:18;;;;;;;1.83;1.45;;;;;;;;;;1747482;28;20214;-81
2023/12/30 09:47:10;;;;;;;2.78;1.13;;;;;;;;;;1747872;28;20207;-81
2023/12/30 09:48:02;;;;;;;1.55;1.02;;;;;;;;;;1753852;28;20230;-81
2023/12/30 09:48:56;;;;;;;1.67;1.10;;;;;;;;;;1752677;28;20191;-81
2023/12/30 09:49:47;;;;;;;2.40;1.38;;;;;;;;;;1749613;28;20210;-81
2023/12/30 09:50:39;;;;;;;1.10;1.00;;;;;;;;;;1747784;28;20218;-82
2023/12/30 09:51:31;;;;;;;1.45;1.35;;;;;;;;;;1748001;28;20233;-82
2023/12/30 09:52:22;;;;;;;1.35;1.10;;;;;;;;;;1748389;28;20210;-82
2023/12/30 09:53:13;;;;;;;2.25;1.40;;;;;;;;;;1752032;28;20202;-82
2023/12/30 09:54:05;;;;;;;2.75;1.20;;;;;;;;;;1748195;28;20557;-82
2023/12/30 09:54:56;;;;;;;1.77;1.25;;;;;;;;;;1750721;28;20198;-82
2023/12/30 09:55:49;;;;;;;1.52;1.08;;;;;;;;;;1748026;28;20198;-82
2023/12/30 09:56:41;;;;;;;1.42;1.05;;;;;;;;;;1748042;28;20621;-83
2023/12/30 09:57:32;;;;;;;2.67;1.27;;;;;;;;;;1747864;28;20231;-82
2023/12/30 09:58:24;;;;;;;1.20;1.10;;;;;;;;;;1748047;28;20201;-82
2023/12/30 09:59:16;;;;;;;1.83;1.20;;;;;;;;;;1752412;28;20562;-81
2023/12/30 10:00:08;;;;;;;1.50;1.10;;;;;;;;;;1754899;28;20198;-82
2023/12/30 10:01:00;;;;;;;2.20;1.20;;;;;;;;;;1751575;28;20293;-81
2023/12/30 10:01:51;;;;;;;2.42;1.38;;;;;;;;;;1749055;28;20213;-82
2023/12/30 10:02:44;;;;;;;1.58;1.25;;;;;;;;;;1747872;28;20205;-82
2023/12/30 10:03:36;;;;;;;1.60;1.50;;;;;;;;;;1747988;28;20207;-82
2023/12/30 10:04:29;;;;;;;2.10;1.20;;;;;;;;;;1748123;28;20199;-82
2023/12/30 10:05:21;;;;;;;3.67;1.10;;;;;;;;;;1754854;28;20209;-82
2023/12/30 10:06:14;;;;;;;3.25;1.42;;;;;;;;;;1754940;28;20323;-82
2023/12/30 10:07:07;;;;;;;2.22;1.10;;;;;;;;;;1748461;28;20206;-83
2023/12/30 10:07:58;;;;;;;2.20;1.10;;;;;;;;;;1748105;28;20671;-83
2023/12/30 10:08:50;;;;;;;1.38;1.25;;;;;;;;;;1752168;28;20345;-82
2023/12/30 10:09:42;;;;;;;3.17;1.17;;;;;;;;;;1755065;28;20209;-81
2023/12/30 10:10:42;;;;;;;2.30;0.90;;;;;;;;;;1751413;28;20241;-81
2023/12/30 10:11:34;;;;;;;2.05;1.13;;;;;;;;;;1747860;28;20258;-82
2023/12/30 10:12:25;;;;;;;1.02;0.73;;;;;;;;;;1751009;28;20217;-82
2023/12/30 10:13:17;;;;;;;1.80;1.10;;;;;;;;;;1754730;28;20206;-82
2023/12/30 10:14:09;;;;;;;1.77;1.00;;;;;;;;;;1753249;28;20566;-82
2023/12/30 10:15:01;;;;;;;1.83;0.90;;;;;;;;;;1747985;28;20202;-82
2023/12/30 10:15:52;;;;;;;2.13;0.90;;;;;;;;;;1750745;28;20201;-82
2023/12/30 10:16:45;;;;;;;3.90;1.00;;;;;;;;;;1748239;28;20217;-81
2023/12/30 10:17:38;;;;;;;1.63;1.00;;;;;;;;;;1747946;28;20218;-81
2023/12/30 10:18:29;;;;;;;1.23;0.80;;;;;;;;;;1747651;28;20233;-82
2023/12/30 10:19:21;;;;;;;1.58;0.90;;;;;;;;;;1748087;28;20720;-83
2023/12/30 10:20:17;;;;;;;1.40;1.00;;;;;;;;;;1752413;28;20202;-82
2023/12/30 10:21:09;;;;;;;2.45;1.17;;;;;;;;;;1754801;28;20276;-81
2023/12/30 10:22:00;;;;;;;1.10;0.75;;;;;;;;;;1751151;28;20211;-82
2023/12/30 10:22:52;;;;;;;1.20;0.80;;;;;;;;;;1748237;28;20194;-81
2023/12/30 10:23:47;;;;;;;1.50;0.95;;;;;;;;;;1749768;28;20214;-81
2023/12/30 10:24:39;;;;;;;1.75;1.00;;;;;;;;;;1753892;28;20194;-82
2023/12/30 10:25:30;;;;;;;1.70;0.85;;;;;;;;;;1754023;28;20236;-78
2023/12/30 10:26:22;;;;;;;1.38;0.80;;;;;;;;;;1748213;28;20191;-79
2023/12/30 10:27:13;;;;;;;2.10;1.00;;;;;;;;;;1754089;28;20229;-78
2023/12/30 10:28:05;;;;;;;1.80;0.80;;;;;;;;;;1745613;28;20725;-77
2023/12/30 10:28:57;;;;;;;1.35;0.80;;;;;;;;;;1744453;28;20588;-79
2023/12/30 10:29:53;;;;;;;2.28;1.60;;;;;;;;;;1742598;28;20211;-79
2023/12/30 10:30:47;;;;;;;2.03;0.90;;;;;;;;;;1749782;28;20645;-79
2023/12/30 10:31:38;;;;;;;2.10;0.98;;;;;;;;;;1745771;28;20221;-79
2023/12/30 10:32:30;;;;;;;2.08;1.08;;;;;;;;;;1742950;28;20266;-80
2023/12/30 10:33:22;;;;;;;1.50;0.95;;;;;;;;;;1742758;28;20226;-80
2023/12/30 10:34:21;;;;;;;1.20;0.70;;;;;;;;;;1742655;28;20620;-79
2023/12/30 10:35:13;;;;;;;1.40;0.95;;;;;;;;;;1745453;28;20215;-79
2023/12/30 10:36:06;;;;;;;1.10;0.95;;;;;;;;;;1750489;28;20209;-80
2023/12/30 10:36:58;;;;;;;1.20;0.80;;;;;;;;;;1748506;28;20274;-79
2023/12/30 10:37:49;;;;;;;3.35;1.00;;;;;;;;;;1743056;28;20223;-80
2023/12/30 10:38:42;;;;;;;2.00;1.20;;;;;;;;;;1743227;28;20191;-78
2023/12/30 10:39:34;;;;;;;2.78;1.40;;;;;;;;;;1742812;28;20207;-80
2023/12/30 10:40:25;;;;;;;2.03;0.90;;;;;;;;;;1742936;28;20219;-80
2023/12/30 10:41:17;;;;;;;1.35;0.90;;;;;;;;;;1747302;28;20214;-80
2023/12/30 10:42:10;;;;;;;2.05;1.00;;;;;;;;;;1750293;28;20206;-79
2023/12/30 10:43:01;;;;;;;1.77;1.00;;;;;;;;;;1750197;28;20203;-80
2023/12/30 10:43:53;;;;;;;1.00;0.80;;;;;;;;;;1750136;28;20198;-79
2023/12/30 10:44:44;;;;;;;1.23;0.82;;;;;;;;;;1747365;28;20198;-79
2023/12/30 10:45:37;;;;;;;1.23;0.90;;;;;;;;;;1743710;28;20205;-79
2023/12/30 10:46:28;;;;;;;1.75;0.93;;;;;;;;;;1744337;28;20211;-79
2023/12/30 10:47:22;;;;;;;1.35;0.88;;;;;;;;;;1750125;28;20198;-79
2023/12/30 10:48:13;;;;;;;2.00;1.10;;;;;;;;;;1750595;28;20289;-79
2023/12/30 10:49:05;;;;;;;1.60;0.90;;;;;;;;;;1749151;28;20198;-81
2023/12/30 10:50:04;;;;;;;1.65;1.08;;;;;;;;;;1750164;28;20202;-79
2023/12/30 10:50:58;;;;;;;1.45;1.00;;;;;;;;;;1744413;28;20226;-80
2023/12/30 10:51:52;;;;;;;2.80;0.90;;;;;;;;;;1742965;28;20244;-80
2023/12/30 10:52:46;;;;;;;1.55;1.02;;;;;;;;;;1742823;28;20203;-79
2023/12/30 10:53:39;;;;;;;1.52;1.08;;;;;;;;;;1743260;28;20214;-79
2023/12/30 10:54:33;;;;;;;1.80;1.00;;;;;;;;;;1747671;28;20692;-79
2023/12/30 10:55:26;;;;;;;3.40;1.25;;;;;;;;;;1749768;28;20252;-80
2023/12/30 10:56:23;;;;;;;1.65;1.00;;;;;;;;;;1746566;28;20713;-80
2023/12/30 10:57:16;;;;;;;3.72;0.90;;;;;;;;;;1743253;28;20266;-79
2023/12/30 10:58:12;;;;;;;7.75;5.47;;;;;;;;;;1745803;28;20238;-79
2023/12/30 10:59:04;;;;;;;2.10;1.10;;;;;;;;;;1749809;28;20253;-80
2023/12/30 10:59:58;;;;;;;1.85;0.85;;;;;;;;;;1747565;28;20202;-79
2023/12/30 11:00:52;;;;;;;2.65;1.55;;;;;;;;;;1744240;28;20203;-79
2023/12/30 11:01:45;;;;;;;4.15;0.90;;;;;;;;;;1747523;28;20622;-79
2023/12/30 11:02:36;;;;;;;1.30;0.90;;;;;;;;;;1748288;28;20199;-79
2023/12/30 11:03:29;;;;;;;1.75;0.80;;;;;;;;;;1745974;28;20222;-80
2023/12/30 11:04:21;;;;;;;1.50;0.90;;;;;;;;;;1745732;28;20194;-80
2023/12/30 11:05:16;;;;;;;2.42;1.20;;;;;;;;;;1745835;28;20281;-79
2023/12/30 11:06:13;;;;;;;1.00;0.88;;;;;;;;;;1746225;28;20225;-80
2023/12/30 11:07:06;;;;;;;1.95;0.80;;;;;;;;;;1746277;28;20219;-79
2023/12/30 11:07:57;;;;;;;1.25;0.70;;;;;;;;;;1747268;28;20282;-80
2023/12/30 11:08:49;;;;;;;1.92;0.90;;;;;;;;;;1746858;28;20241;-80
2023/12/30 11:09:40;;;;;;;2.50;1.00;;;;;;;;;;1747122;28;20233;-80
2023/12/30 11:10:34;;;;;;;1.45;0.80;;;;;;;;;;1745864;28;20210;-80
2023/12/30 11:11:25;;;;;;;1.60;0.80;;;;;;;;;;1746437;28;20218;-80
2023/12/30 11:12:16;;;;;;;1.73;0.77;;;;;;;;;;1751752;28;20224;-80